createdAt,value
2022-09-11T00:00:56.715Z,101590.94
2022-09-11T00:03:27.175Z,101594.66
2022-09-11T00:05:53.849Z,101598.38
2022-09-11T00:08:21.432Z,101602.28
2022-09-11T00:10:48.738Z,101607.88
2022-09-11T00:13:25.382Z,101608.88
2022-09-11T00:15:52.223Z,101603.84
2022-09-11T00:18:24.006Z,101603.44
2022-09-11T00:20:56.290Z,101611.34
2022-09-11T00:23:25.604Z,101613.50
2022-09-11T00:25:52.655Z,101605.59
2022-09-11T00:28:21.921Z,101606.59
2022-09-11T00:31:01.180Z,101610.19
2022-09-11T00:33:33.422Z,101608.19
2022-09-11T00:36:03.924Z,101603.47
2022-09-11T00:38:33.038Z,101608.75
2022-09-11T00:41:01.558Z,101617.94
2022-09-11T00:43:51.934Z,101617.22
2022-09-11T00:46:19.809Z,101617.06
2022-09-11T00:48:49.760Z,101615.34
2022-09-11T00:51:26.406Z,101620.06
2022-09-11T00:53:59.202Z,101615.63
2022-09-11T00:56:31.307Z,101613.91
2022-09-11T00:58:59.249Z,101612.19
2022-09-11T01:01:26.042Z,101612.19
2022-09-11T01:03:56.844Z,101606.88
2022-09-11T01:06:24.454Z,101602.28
2022-09-11T01:08:52.541Z,101615.91
2022-09-11T01:11:43.164Z,101610.75
2022-09-11T01:14:21.797Z,101618.06
2022-09-11T01:17:01.344Z,101626.53
2022-09-11T01:19:43.597Z,101619.38
2022-09-11T01:22:45.935Z,101621.09
2022-09-11T01:25:30.020Z,101621.94
2022-09-11T01:28:00.804Z,101622.97
2022-09-11T01:30:37.525Z,101626.81
2022-09-11T01:33:49.126Z,101625.25
2022-09-11T01:36:53.714Z,101628.28
2022-09-11T01:39:25.320Z,101614.81
2022-09-11T01:41:56.357Z,101633.16
2022-09-11T01:44:36.678Z,101629.72
2022-09-11T01:47:10.667Z,101638.03
2022-09-11T01:49:56.061Z,101638.47
2022-09-11T01:52:32.004Z,101644.34
2022-09-11T01:55:14.407Z,101638.59
2022-09-11T01:57:48.178Z,101640.91
2022-09-11T02:00:16.221Z,101644.91
2022-09-11T02:02:46.962Z,101645.19
2022-09-11T02:05:27.758Z,101653.78
2022-09-11T02:07:56.643Z,101645.78
2022-09-11T02:10:40.352Z,101647.06
2022-09-11T02:13:44.197Z,101659.38
2022-09-11T02:16:39.843Z,101660.34
2022-09-11T02:19:12.338Z,101661.59
2022-09-11T02:21:39.588Z,101655.44
2022-09-11T02:24:34.714Z,101654.84
2022-09-11T02:27:04.718Z,101647.25
2022-09-11T02:29:32.802Z,101655.72
2022-09-11T02:32:00.796Z,101660.28
2022-09-11T02:34:34.257Z,101655.72
2022-09-11T02:37:11.038Z,101663.72
2022-09-11T02:40:15.523Z,101656.56
2022-09-11T02:42:55.238Z,101659.28
2022-09-11T02:45:32.530Z,101652.13
2022-09-11T02:48:23.984Z,101653.97
2022-09-11T02:51:12.250Z,101660.28
2022-09-11T02:54:04.130Z,101663.00
2022-09-11T02:56:34.081Z,101664.59
2022-09-11T02:59:07.329Z,101672.03
2022-09-11T03:01:53.126Z,101668.59
2022-09-11T03:04:24.638Z,101675.75
2022-09-11T03:06:53.632Z,101676.75
2022-09-11T03:09:20.846Z,101678.88
2022-09-11T03:11:51.150Z,101677.44
2022-09-11T03:14:19.435Z,101678.00
2022-09-11T03:16:46.806Z,101672.97
2022-09-11T03:19:14.164Z,101676.69
2022-09-11T03:21:40.619Z,101675.56
2022-09-11T03:24:13.102Z,101681.88
2022-09-11T03:26:39.759Z,101679.00
2022-09-11T03:29:06.798Z,101686.16
2022-09-11T03:31:37.364Z,101683.31
2022-09-11T03:34:10.408Z,101678.72
2022-09-11T03:36:37.168Z,101671.44
2022-09-11T03:39:05.239Z,101679.59
2022-09-11T03:41:32.585Z,101677.72
2022-09-11T03:44:00.822Z,101680.44
2022-09-11T03:46:28.887Z,101684.03
2022-09-11T03:48:55.463Z,101682.31
2022-09-11T03:51:21.942Z,101678.72
2022-09-11T03:53:49.506Z,101688.03
2022-09-11T03:56:16.241Z,101692.88
2022-09-11T03:58:48.035Z,101691.31
2022-09-11T04:01:16.078Z,101695.28
2022-09-11T04:03:47.446Z,101695.72
2022-09-11T04:06:26.715Z,101694.53
2022-09-11T04:08:54.705Z,101695.50
2022-09-11T04:11:22.514Z,101692.59
2022-09-11T04:13:54.695Z,101700.16
2022-09-11T04:16:24.653Z,101712.75
2022-09-11T04:18:54.290Z,101709.78
2022-09-11T04:21:21.302Z,101705.06
2022-09-11T04:24:00.298Z,101707.06
2022-09-11T04:26:31.257Z,101715.59
2022-09-11T04:29:05.357Z,101709.84
2022-09-11T04:31:34.398Z,101708.38
2022-09-11T04:34:01.491Z,101710.91
2022-09-11T04:36:32.038Z,101707.47
2022-09-11T04:39:00.094Z,101705.47
2022-09-11T04:41:28.506Z,101700.75
2022-09-11T04:44:22.232Z,101708.63
2022-09-11T04:46:48.678Z,101705.38
2022-09-11T04:49:15.551Z,101710.72
2022-09-11T04:51:45.171Z,101708.72
2022-09-11T04:54:21.286Z,101713.88
2022-09-11T04:56:48.879Z,101702.03
2022-09-11T04:59:20.216Z,101704.59
2022-09-11T05:01:55.161Z,101704.47
2022-09-11T05:04:26.961Z,101706.19
2022-09-11T05:06:55.069Z,101705.06
2022-09-11T05:09:22.262Z,101712.81
2022-09-11T05:11:48.875Z,101709.81
2022-09-11T05:14:20.656Z,101707.69
2022-09-11T05:16:50.045Z,101715.69
2022-09-11T05:19:19.038Z,101720.88
2022-09-11T05:21:46.188Z,101726.31
2022-09-11T05:24:17.310Z,101723.44
2022-09-11T05:26:43.816Z,101731.47
2022-09-11T05:29:14.847Z,101727.88
2022-09-11T05:32:07.460Z,101732.31
2022-09-11T05:34:35.339Z,101735.19
2022-09-11T05:37:02.368Z,101750.78
2022-09-11T05:39:32.446Z,101747.19
2022-09-11T05:42:01.542Z,101751.50
2022-09-11T05:44:37.060Z,101754.06
2022-09-11T05:47:04.754Z,101754.94
2022-09-11T05:49:31.850Z,101756.94
2022-09-11T05:51:59.917Z,101768.06
2022-09-11T05:54:30.265Z,101770.94
2022-09-11T05:56:59.125Z,101777.94
2022-09-11T05:59:27.117Z,101773.09
2022-09-11T06:01:54.240Z,101776.56
2022-09-11T06:04:33.334Z,101778.13
2022-09-11T06:07:00.165Z,101784.31
2022-09-11T06:09:28.126Z,101796.75
2022-09-11T06:11:54.757Z,101793.91
2022-09-11T06:14:25.121Z,101797.22
2022-09-11T06:16:51.677Z,101802.25
2022-09-11T06:19:19.078Z,101804.81
2022-09-11T06:21:46.250Z,101805.09
2022-09-11T06:24:28.313Z,101817.13
2022-09-11T06:26:56.237Z,101809.94
2022-09-11T06:29:24.099Z,101813.41
2022-09-11T06:31:51.619Z,101811.66
2022-09-11T06:34:23.282Z,101812.81
2022-09-11T06:36:52.392Z,101814.81
2022-09-11T06:39:22.686Z,101814.94
2022-09-11T06:41:50.263Z,101811.50
2022-09-11T06:44:21.662Z,101813.06
2022-09-11T06:46:48.137Z,101818.50
2022-09-11T06:49:14.603Z,101819.38
2022-09-11T06:51:59.606Z,101823.56
2022-09-11T06:54:31.815Z,101824.00
2022-09-11T06:57:02.469Z,101833.47
2022-09-11T06:59:28.927Z,101830.91
2022-09-11T07:01:55.911Z,101833.47
2022-09-11T07:04:23.358Z,101831.47
2022-09-11T07:06:50.418Z,101824.78
2022-09-11T07:09:17.411Z,101826.34
2022-09-11T07:11:50.091Z,101825.81
2022-09-11T07:14:21.429Z,101826.66
2022-09-11T07:16:52.822Z,101825.69
2022-09-11T07:19:19.434Z,101820.00
2022-09-11T07:21:45.922Z,101819.63
2022-09-11T07:24:17.366Z,101823.34
2022-09-11T07:26:44.501Z,101825.44
2022-09-11T07:29:18.394Z,101827.81
2022-09-11T07:31:50.070Z,101833.66
2022-09-11T07:34:18.274Z,101832.25
2022-09-11T07:36:45.581Z,101828.28
2022-09-11T07:39:12.746Z,101829.00
2022-09-11T07:41:49.296Z,101825.78
2022-09-11T07:44:25.837Z,101828.22
2022-09-11T07:46:53.002Z,101837.09
2022-09-11T07:49:21.505Z,101833.13
2022-09-11T07:51:48.387Z,101837.88
2022-09-11T07:54:21.770Z,101847.19
2022-09-11T07:56:48.706Z,101848.50
2022-09-11T07:59:18.203Z,101858.97
2022-09-11T08:01:47.850Z,101856.13
2022-09-11T08:04:16.668Z,101851.38
2022-09-11T08:06:43.951Z,101853.25
2022-09-11T08:09:20.294Z,101856.56
2022-09-11T08:11:55.606Z,101860.13
2022-09-11T08:14:27.274Z,101861.00
2022-09-11T08:16:57.282Z,101863.16
2022-09-11T08:19:26.697Z,101865.59
2022-09-11T08:21:56.235Z,101869.63
2022-09-11T08:24:24.421Z,101875.38
2022-09-11T08:26:55.225Z,101878.28
2022-09-11T08:29:21.970Z,101879.44
2022-09-11T08:31:48.811Z,101873.19
2022-09-11T08:34:22.204Z,101873.31
2022-09-11T08:36:50.873Z,101875.03
2022-09-11T08:39:17.875Z,101886.22
2022-09-11T08:41:53.482Z,101879.19
2022-09-11T08:44:38.518Z,101881.91
2022-09-11T08:47:31.036Z,101881.50
2022-09-11T08:50:08.913Z,101878.03
2022-09-11T08:52:36.725Z,101888.38
2022-09-11T08:55:17.130Z,101891.81
2022-09-11T08:57:54.898Z,101883.91
2022-09-11T09:00:38.277Z,101888.06
2022-09-11T09:03:40.117Z,101885.19
2022-09-11T09:06:21.548Z,101894.53
2022-09-11T09:09:13.939Z,101896.25
2022-09-11T09:11:50.836Z,101902.13
2022-09-11T09:14:47.462Z,101898.09
2022-09-11T09:17:14.394Z,101896.94
2022-09-11T09:19:50.021Z,101899.22
2022-09-11T09:22:26.532Z,101900.34
2022-09-11T09:25:01.229Z,101897.72
2022-09-11T09:27:37.110Z,101906.06
2022-09-11T09:30:07.501Z,101902.88
2022-09-11T09:32:51.366Z,101901.72
2022-09-11T09:35:39.354Z,101900.94
2022-09-11T09:38:18.668Z,101901.91
2022-09-11T09:40:59.813Z,101904.75
2022-09-11T09:44:08.804Z,101910.03
2022-09-11T09:46:41.711Z,101905.91
2022-09-11T09:49:17.145Z,101909.16
2022-09-11T09:51:43.755Z,101910.34
2022-09-11T09:54:26.629Z,101909.94
2022-09-11T09:57:02.497Z,101912.38
2022-09-11T09:59:43.385Z,101910.03
2022-09-11T10:02:09.862Z,101906.66
2022-09-11T10:04:40.639Z,101902.59
2022-09-11T10:07:10.510Z,101910.19
2022-09-11T10:09:46.764Z,101909.56
2022-09-11T10:12:21.652Z,101904.84
2022-09-11T10:15:01.279Z,101904.25
2022-09-11T10:17:31.894Z,101906.34
2022-09-11T10:20:23.099Z,101907.03
2022-09-11T10:22:51.185Z,101913.44
2022-09-11T10:25:26.526Z,101911.94
2022-09-11T10:28:14.532Z,101922.06
2022-09-11T10:31:00.504Z,101924.69
2022-09-11T10:33:37.102Z,101919.13
2022-09-11T10:36:07.942Z,101927.25
2022-09-11T10:38:46.511Z,101917.72
2022-09-11T10:41:13.178Z,101916.78
2022-09-11T10:44:00.336Z,101911.69
2022-09-11T10:46:39.427Z,101912.25
2022-09-11T10:49:05.828Z,101908.22
2022-09-11T10:51:35.203Z,101903.81
2022-09-11T10:54:16.946Z,101906.22
2022-09-11T10:57:09.504Z,101901.59
2022-09-11T10:59:49.937Z,101906.91
2022-09-11T11:02:20.651Z,101903.84
2022-09-11T11:04:52.177Z,101904.00
2022-09-11T11:07:36.291Z,101908.28
2022-09-11T11:10:13.117Z,101912.22
2022-09-11T11:13:06.439Z,101909.63
2022-09-11T11:15:53.058Z,101908.09
2022-09-11T11:18:31.380Z,101909.75
2022-09-11T11:21:32.760Z,101909.72
2022-09-11T11:24:17.607Z,101910.88
2022-09-11T11:26:44.059Z,101909.31
2022-09-11T11:29:16.152Z,101917.38
2022-09-11T11:32:15.854Z,101914.31
2022-09-11T11:35:01.137Z,101917.25
2022-09-11T11:37:34.063Z,101914.66
2022-09-11T11:40:19.700Z,101905.94
2022-09-11T11:42:56.113Z,101903.34
2022-09-11T11:45:32.354Z,101901.66
2022-09-11T11:48:02.146Z,101906.84
2022-09-11T11:50:52.664Z,101901.69
2022-09-11T11:53:48.621Z,101906.13
2022-09-11T11:56:22.687Z,101908.00
2022-09-11T11:59:13.470Z,101902.59
2022-09-11T12:02:25.990Z,101897.78
2022-09-11T12:05:02.120Z,101903.22
2022-09-11T12:07:34.165Z,101906.47
2022-09-11T12:10:02.879Z,101896.81
2022-09-11T12:12:33.840Z,101898.66
2022-09-11T12:15:08.181Z,101890.00
2022-09-11T12:17:40.126Z,101886.19
2022-09-11T12:20:09.469Z,101888.69
2022-09-11T12:22:48.558Z,101878.47
2022-09-11T12:25:20.942Z,101880.44
2022-09-11T12:27:48.790Z,101879.31
2022-09-11T12:30:18.300Z,101879.25
2022-09-11T12:32:49.797Z,101872.63
2022-09-11T12:35:34.876Z,101873.81
2022-09-11T12:38:19.842Z,101865.81
2022-09-11T12:41:07.338Z,101862.97
2022-09-11T12:43:37.252Z,101866.50
2022-09-11T12:46:10.218Z,101868.69
2022-09-11T12:48:56.249Z,101865.44
2022-09-11T12:51:39.047Z,101857.50
2022-09-11T12:54:21.880Z,101862.34
2022-09-11T12:56:59.250Z,101855.94
2022-09-11T12:59:51.539Z,101840.31
2022-09-11T13:02:36.589Z,101844.09
2022-09-11T13:05:06.171Z,101844.47
2022-09-11T13:07:43.003Z,101840.16
2022-09-11T13:10:25.864Z,101843.03
2022-09-11T13:12:55.768Z,101839.16
2022-09-11T13:15:38.763Z,101842.88
2022-09-11T13:18:37.590Z,101841.63
2022-09-11T13:21:10.578Z,101837.75
2022-09-11T13:23:44.759Z,101836.38
2022-09-11T13:26:26.176Z,101825.94
2022-09-11T13:28:56.228Z,101824.03
2022-09-11T13:31:33.531Z,101817.25
2022-09-11T13:34:11.941Z,101817.50
2022-09-11T13:36:39.498Z,101817.44
2022-09-11T13:39:07.981Z,101806.34
2022-09-11T13:41:39.950Z,101804.41
2022-09-11T13:44:30.205Z,101800.72
2022-09-11T13:46:56.839Z,101806.44
2022-09-11T13:49:38.923Z,101806.25
2022-09-11T13:52:06.529Z,101800.97
2022-09-11T13:55:10.844Z,101794.22
2022-09-11T13:57:54.633Z,101788.44
2022-09-11T14:00:39.534Z,101793.50
2022-09-11T14:03:16.724Z,101792.03
2022-09-11T14:05:53.898Z,101796.75
2022-09-11T14:08:27.082Z,101782.75
2022-09-11T14:10:56.823Z,101777.69
2022-09-11T14:13:26.149Z,101772.03
2022-09-11T14:15:56.753Z,101769.09
2022-09-11T14:18:29.093Z,101760.66
2022-09-11T14:20:59.224Z,101762.22
2022-09-11T14:23:31.218Z,101759.75
2022-09-11T14:26:08.287Z,101757.84
2022-09-11T14:28:47.885Z,101759.75
2022-09-11T14:31:28.486Z,101762.88
2022-09-11T14:34:18.233Z,101760.41
2022-09-11T14:36:49.975Z,101754.72
2022-09-11T14:39:42.307Z,101765.97
2022-09-11T14:42:18.282Z,101761.72
2022-09-11T14:44:44.962Z,101759.56
2022-09-11T14:47:26.050Z,101764.59
2022-09-11T14:49:54.488Z,101754.78
2022-09-11T14:52:29.316Z,101758.81
2022-09-11T14:54:57.031Z,101757.75
2022-09-11T14:57:26.983Z,101750.31
2022-09-11T14:59:53.481Z,101756.03
2022-09-11T15:02:23.359Z,101757.28
2022-09-11T15:04:56.490Z,101748.75
2022-09-11T15:07:24.155Z,101754.09
2022-09-11T15:09:52.485Z,101751.31
2022-09-11T15:12:19.288Z,101751.31
2022-09-11T15:14:57.092Z,101747.91
2022-09-11T15:17:25.139Z,101740.03
2022-09-11T15:19:52.600Z,101746.16
2022-09-11T15:22:19.381Z,101739.09
2022-09-11T15:24:46.642Z,101740.09
2022-09-11T15:27:13.094Z,101733.22
2022-09-11T15:29:40.597Z,101733.97
2022-09-11T15:32:07.865Z,101727.91
2022-09-11T15:34:35.800Z,101723.09
2022-09-11T15:37:02.556Z,101728.09
2022-09-11T15:39:29.064Z,101724.63
2022-09-11T15:41:56.212Z,101733.03
2022-09-11T15:44:28.595Z,101722.13
2022-09-11T15:46:56.854Z,101720.31
2022-09-11T15:49:24.024Z,101717.88
2022-09-11T15:51:52.328Z,101720.34
2022-09-11T15:54:20.532Z,101723.88
2022-09-11T15:56:47.189Z,101719.31
2022-09-11T15:59:17.955Z,101722.38
2022-09-11T16:01:44.979Z,101716.13
2022-09-11T16:04:36.594Z,101714.31
2022-09-11T16:07:03.453Z,101712.16
2022-09-11T16:09:31.592Z,101715.81
2022-09-11T16:12:00.185Z,101712.59
2022-09-11T16:14:31.011Z,101725.91
2022-09-11T16:16:58.415Z,101723.72
2022-09-11T16:19:27.764Z,101720.88
2022-09-11T16:21:56.926Z,101718.88
2022-09-11T16:24:25.875Z,101718.56
2022-09-11T16:26:56.346Z,101717.03
2022-09-11T16:29:25.573Z,101714.47
2022-09-11T16:31:52.269Z,101705.94
2022-09-11T16:34:23.553Z,101702.88
2022-09-11T16:36:50.196Z,101706.00
2022-09-11T16:39:21.696Z,101709.81
2022-09-11T16:41:48.541Z,101695.56
2022-09-11T16:44:19.739Z,101703.53
2022-09-11T16:46:46.422Z,101700.31
2022-09-11T16:49:17.627Z,101693.47
2022-09-11T16:51:45.732Z,101699.13
2022-09-11T16:54:14.748Z,101688.69
2022-09-11T16:56:45.880Z,101690.56
2022-09-11T16:59:12.760Z,101685.44
2022-09-11T17:01:39.678Z,101681.38
2022-09-11T17:04:07.287Z,101679.19
2022-09-11T17:06:33.881Z,101683.34
2022-09-11T17:09:04.050Z,101678.22
2022-09-11T17:11:32.373Z,101675.16
2022-09-11T17:14:03.393Z,101673.81
2022-09-11T17:16:32.136Z,101679.88
2022-09-11T17:18:59.824Z,101683.53
2022-09-11T17:21:26.853Z,101687.19
2022-09-11T17:23:57.246Z,101680.72
2022-09-11T17:26:24.111Z,101673.22
2022-09-11T17:28:51.831Z,101667.75
2022-09-11T17:31:19.440Z,101671.41
2022-09-11T17:33:49.659Z,101667.69
2022-09-11T17:36:19.040Z,101668.59
2022-09-11T17:38:48.197Z,101671.19
2022-09-11T17:41:15.635Z,101671.06
2022-09-11T17:43:48.091Z,101670.72
2022-09-11T17:46:17.352Z,101676.06
2022-09-11T17:48:44.191Z,101675.94
2022-09-11T17:51:13.639Z,101678.53
2022-09-11T17:53:42.489Z,101673.72
2022-09-11T17:56:11.878Z,101676.34
2022-09-11T17:58:38.578Z,101680.66
2022-09-11T18:01:06.071Z,101682.38
2022-09-11T18:03:36.230Z,101683.28
2022-09-11T18:06:15.602Z,101693.91
2022-09-11T18:08:42.252Z,101686.56
2022-09-11T18:11:09.435Z,101695.81
2022-09-11T18:13:37.858Z,101684.53
2022-09-11T18:16:07.432Z,101680.91
2022-09-11T18:18:36.077Z,101676.97
2022-09-11T18:21:08.862Z,101676.81
2022-09-11T18:23:42.413Z,101676.31
2022-09-11T18:26:23.426Z,101675.63
2022-09-11T18:28:50.638Z,101671.69
2022-09-11T18:31:17.198Z,101680.75
2022-09-11T18:33:53.150Z,101673.19
2022-09-11T18:36:20.766Z,101675.41
2022-09-11T18:39:00.022Z,101670.44
2022-09-11T18:41:28.118Z,101669.75
2022-09-11T18:44:00.825Z,101671.13
2022-09-11T18:46:27.883Z,101671.63
2022-09-11T18:48:55.808Z,101669.69
2022-09-11T18:51:22.366Z,101677.72
2022-09-11T18:53:54.487Z,101668.63
2022-09-11T18:56:23.645Z,101673.06
2022-09-11T18:58:52.129Z,101679.91
2022-09-11T19:01:21.135Z,101669.94
2022-09-11T19:03:53.337Z,101670.78
2022-09-11T19:06:22.294Z,101676.53
2022-09-11T19:08:49.012Z,101677.03
2022-09-11T19:11:18.706Z,101676.69
2022-09-11T19:13:48.590Z,101678.03
2022-09-11T19:18:43.326Z,101679.88
2022-09-11T19:21:22.252Z,101678.28
2022-09-11T19:24:00.156Z,101677.91
2022-09-11T19:26:37.529Z,101675.50
2022-09-11T19:29:04.516Z,101673.78
2022-09-11T19:31:31.992Z,101685.22
2022-09-11T19:34:01.561Z,101685.72
2022-09-11T19:36:30.945Z,101693.88
2022-09-11T19:39:00.504Z,101693.66
2022-09-11T19:41:33.478Z,101690.69
2022-09-11T19:44:02.956Z,101704.00
2022-09-11T19:46:31.525Z,101701.41
2022-09-11T19:49:00.803Z,101699.69
2022-09-11T19:51:30.737Z,101703.13
2022-09-11T19:54:02.784Z,101700.25
2022-09-11T19:56:31.483Z,101706.56
2022-09-11T19:58:58.028Z,101710.00
2022-09-11T20:01:25.844Z,101700.78
2022-09-11T20:03:57.581Z,101702.97
2022-09-11T20:06:26.535Z,101699.28
2022-09-11T20:09:07.940Z,101698.75
2022-09-11T20:11:40.354Z,101692.44
2022-09-11T20:14:32.598Z,101692.44
2022-09-11T20:17:00.905Z,101688.69
2022-09-11T20:19:28.038Z,101690.56
2022-09-11T20:21:54.473Z,101686.09
2022-09-11T20:24:22.881Z,101689.31
2022-09-11T20:26:50.190Z,101688.94
2022-09-11T20:29:16.684Z,101687.22
2022-09-11T20:31:48.836Z,101688.09
2022-09-11T20:34:19.683Z,101686.03
2022-09-11T20:36:46.703Z,101685.19
2022-09-11T20:39:14.028Z,101678.00
2022-09-11T20:41:40.692Z,101684.50
2022-09-11T20:44:11.938Z,101675.59
2022-09-11T20:46:38.505Z,101676.06
2022-09-11T20:49:05.494Z,101669.50
2022-09-11T20:51:32.937Z,101673.31
2022-09-11T20:54:05.529Z,101663.88
2022-09-11T20:56:32.009Z,101668.09
2022-09-11T20:59:00.022Z,101673.34
2022-09-11T21:01:29.817Z,101665.06
2022-09-11T21:04:00.428Z,101659.34
2022-09-11T21:06:32.895Z,101657.38
2022-09-11T21:09:02.650Z,101660.75
2022-09-11T21:11:30.033Z,101663.22
2022-09-11T21:13:56.549Z,101663.13
2022-09-11T21:16:23.241Z,101664.91
2022-09-11T21:18:52.710Z,101657.47
2022-09-11T21:21:20.802Z,101668.69
2022-09-11T21:23:56.179Z,101656.22
2022-09-11T21:26:22.839Z,101670.41
2022-09-11T21:28:49.280Z,101663.47
2022-09-11T21:31:15.764Z,101655.28
2022-09-11T21:33:45.762Z,101658.03
2022-09-11T21:36:12.369Z,101645.25
2022-09-11T21:38:39.278Z,101654.28
2022-09-11T21:41:08.711Z,101649.84
2022-09-11T21:43:40.065Z,101650.00
2022-09-11T21:46:08.743Z,101652.88
2022-09-11T21:48:36.896Z,101656.91
2022-09-11T21:51:06.499Z,101652.63
2022-09-11T21:53:38.312Z,101659.25
2022-09-11T21:56:05.348Z,101661.41
2022-09-11T21:58:32.310Z,101655.56
2022-09-11T22:01:08.121Z,101658.75
2022-09-11T22:03:36.676Z,101662.47
2022-09-11T22:06:10.627Z,101659.91
2022-09-11T22:08:39.769Z,101662.63
2022-09-11T22:11:07.247Z,101660.06
2022-09-11T22:13:36.388Z,101664.75
2022-09-11T22:16:05.604Z,101660.16
2022-09-11T22:18:32.518Z,101660.31
2022-09-11T22:21:01.223Z,101663.19
2022-09-11T22:23:30.990Z,101663.34
2022-09-11T22:26:05.766Z,101667.38
2022-09-11T22:28:32.319Z,101659.66
2022-09-11T22:30:58.771Z,101665.84
2022-09-11T22:33:27.134Z,101668.06
2022-09-11T22:35:53.559Z,101670.09
2022-09-11T22:38:20.066Z,101665.22
2022-09-11T22:40:52.309Z,101668.13
2022-09-11T22:43:19.242Z,101669.53
2022-09-11T22:45:51.003Z,101663.38
2022-09-11T22:48:17.794Z,101665.22
2022-09-11T22:50:44.607Z,101661.50
2022-09-11T22:53:11.057Z,101663.38
2022-09-11T22:55:43.862Z,101660.63
2022-09-11T22:58:10.550Z,101663.38
2022-09-11T23:00:37.271Z,101653.34
2022-09-11T23:03:03.889Z,101650.75
2022-09-11T23:05:49.034Z,101649.19
2022-09-11T23:08:15.786Z,101647.47
2022-09-11T23:10:43.860Z,101648.75
2022-09-11T23:13:10.653Z,101650.34
2022-09-11T23:15:41.926Z,101647.50
2022-09-11T23:18:09.125Z,101642.47
2022-09-11T23:20:35.620Z,101640.75
2022-09-11T23:23:03.405Z,101639.03
2022-09-11T23:25:31.609Z,101638.31
2022-09-11T23:27:58.076Z,101641.91
2022-09-11T23:30:24.556Z,101632.16
2022-09-11T23:32:53.154Z,101636.75
2022-09-11T23:35:19.627Z,101632.31
2022-09-11T23:37:46.060Z,101636.88
2022-09-11T23:40:12.654Z,101638.91
2022-09-11T23:42:39.134Z,101634.47
2022-09-11T23:45:07.498Z,101634.03
2022-09-11T23:47:33.928Z,101640.47
2022-09-11T23:50:00.630Z,101630.72
2022-09-11T23:52:27.058Z,101636.31
2022-09-11T23:54:57.451Z,101632.03
2022-09-11T23:57:23.936Z,101631.16
2022-09-11T23:59:50.361Z,101620.28
